sensor_id;sensor_type;location;lat;lon;timestamp;temperature;humidity
3466;DHT22;1747;48.884;9.160;2022-11-20T00:00:39;6.50;99.90
3466;DHT22;1747;48.884;9.160;2022-11-20T00:03:06;6.40;99.90
3466;DHT22;1747;48.884;9.160;2022-11-20T00:05:33;6.50;99.90
3466;DHT22;1747;48.884;9.160;2022-11-20T00:08:00;6.50;99.90
3466;DHT22;1747;48.884;9.160;2022-11-20T00:10:26;6.60;99.90
3466;DHT22;1747;48.884;9.160;2022-11-20T00:12:53;6.60;99.90
3466;DHT22;1747;48.884;9.160;2022-11-20T00:15:23;6.70;99.90
3466;DHT22;1747;48.884;9.160;2022-11-20T00:17:51;6.60;99.90
3466;DHT22;1747;48.884;9.160;2022-11-20T00:20:18;6.60;99.90
3466;DHT22;1747;48.884;9.160;2022-11-20T00:22:45;6.50;99.90
3466;DHT22;1747;48.884;9.160;2022-11-20T00:25:12;6.50;99.90
3466;DHT22;1747;48.884;9.160;2022-11-20T00:27:39;6.50;99.90
3466;DHT22;1747;48.884;9.160;2022-11-20T00:30:07;6.50;99.90
3466;DHT22;1747;48.884;9.160;2022-11-20T00:32:34;6.50;99.90
3466;DHT22;1747;48.884;9.160;2022-11-20T00:35:02;6.50;99.90
3466;DHT22;1747;48.884;9.160;2022-11-20T00:37:29;6.50;99.90
3466;DHT22;1747;48.884;9.160;2022-11-20T00:39:56;6.60;99.90
3466;DHT22;1747;48.884;9.160;2022-11-20T00:42:29;6.50;99.90
3466;DHT22;1747;48.884;9.160;2022-11-20T00:44:58;6.50;99.90
3466;DHT22;1747;48.884;9.160;2022-11-20T00:47:24;6.50;99.90
3466;DHT22;1747;48.884;9.160;2022-11-20T00:49:51;6.60;99.90
3466;DHT22;1747;48.884;9.160;2022-11-20T00:52:19;6.60;99.90
3466;DHT22;1747;48.884;9.160;2022-11-20T00:54:46;6.50;99.90
3466;DHT22;1747;48.884;9.160;2022-11-20T00:57:13;6.50;99.90
3466;DHT22;1747;48.884;9.160;2022-11-20T00:59:40;6.50;99.90
3466;DHT22;1747;48.884;9.160;2022-11-20T01:02:06;6.30;99.90
3466;DHT22;1747;48.884;9.160;2022-11-20T01:04:33;6.30;99.90
3466;DHT22;1747;48.884;9.160;2022-11-20T01:07:00;6.30;99.90
3466;DHT22;1747;48.884;9.160;2022-11-20T01:09:28;6.30;99.90
3466;DHT22;1747;48.884;9.160;2022-11-20T01:11:55;6.30;99.90
3466;DHT22;1747;48.884;9.160;2022-11-20T01:14:22;6.40;99.90
3466;DHT22;1747;48.884;9.160;2022-11-20T01:16:50;6.40;99.90
3466;DHT22;1747;48.884;9.160;2022-11-20T01:19:19;6.40;99.90
3466;DHT22;1747;48.884;9.160;2022-11-20T01:21:49;6.40;99.90
3466;DHT22;1747;48.884;9.160;2022-11-20T01:24:17;6.40;99.90
3466;DHT22;1747;48.884;9.160;2022-11-20T01:26:47;6.40;99.90
3466;DHT22;1747;48.884;9.160;2022-11-20T01:29:16;6.40;99.90
3466;DHT22;1747;48.884;9.160;2022-11-20T01:31:44;6.40;99.90
3466;DHT22;1747;48.884;9.160;2022-11-20T01:34:12;6.40;99.90
3466;DHT22;1747;48.884;9.160;2022-11-20T01:36:40;6.40;99.90
3466;DHT22;1747;48.884;9.160;2022-11-20T01:39:10;6.40;99.90
3466;DHT22;1747;48.884;9.160;2022-11-20T01:41:38;6.40;99.90
3466;DHT22;1747;48.884;9.160;2022-11-20T01:44:47;6.40;99.90
3466;DHT22;1747;48.884;9.160;2022-11-20T01:47:16;6.40;99.90
3466;DHT22;1747;48.884;9.160;2022-11-20T01:49:46;6.40;99.90
3466;DHT22;1747;48.884;9.160;2022-11-20T01:52:17;6.40;99.90
3466;DHT22;1747;48.884;9.160;2022-11-20T01:54:47;6.40;99.90
3466;DHT22;1747;48.884;9.160;2022-11-20T01:57:15;6.40;99.90
3466;DHT22;1747;48.884;9.160;2022-11-20T01:59:47;6.30;99.90
3466;DHT22;1747;48.884;9.160;2022-11-20T02:02:18;6.40;99.90
3466;DHT22;1747;48.884;9.160;2022-11-20T02:04:45;6.40;99.90
3466;DHT22;1747;48.884;9.160;2022-11-20T02:07:13;6.40;99.90
3466;DHT22;1747;48.884;9.160;2022-11-20T02:09:40;6.40;99.90
3466;DHT22;1747;48.884;9.160;2022-11-20T02:12:07;6.40;99.90
3466;DHT22;1747;48.884;9.160;2022-11-20T02:14:56;6.40;99.90
3466;DHT22;1747;48.884;9.160;2022-11-20T02:17:23;6.40;99.90
3466;DHT22;1747;48.884;9.160;2022-11-20T02:19:50;6.40;99.90
3466;DHT22;1747;48.884;9.160;2022-11-20T02:22:21;6.50;99.90
3466;DHT22;1747;48.884;9.160;2022-11-20T02:24:51;6.60;99.90
3466;DHT22;1747;48.884;9.160;2022-11-20T02:27:18;6.50;99.90
3466;DHT22;1747;48.884;9.160;2022-11-20T02:29:47;6.50;99.90
3466;DHT22;1747;48.884;9.160;2022-11-20T02:32:20;6.50;99.90
3466;DHT22;1747;48.884;9.160;2022-11-20T02:34:47;6.50;99.90
3466;DHT22;1747;48.884;9.160;2022-11-20T02:37:14;6.60;99.90
3466;DHT22;1747;48.884;9.160;2022-11-20T02:39:41;6.60;99.90
3466;DHT22;1747;48.884;9.160;2022-11-20T02:42:10;6.70;99.90
3466;DHT22;1747;48.884;9.160;2022-11-20T02:44:37;6.70;99.90
3466;DHT22;1747;48.884;9.160;2022-11-20T02:47:04;6.70;99.90
3466;DHT22;1747;48.884;9.160;2022-11-20T02:49:31;6.70;99.90
3466;DHT22;1747;48.884;9.160;2022-11-20T02:51:58;6.80;99.90
3466;DHT22;1747;48.884;9.160;2022-11-20T02:54:25;6.80;99.90
3466;DHT22;1747;48.884;9.160;2022-11-20T02:56:52;6.90;99.90
3466;DHT22;1747;48.884;9.160;2022-11-20T02:59:20;7.10;99.90
3466;DHT22;1747;48.884;9.160;2022-11-20T03:01:47;7.10;99.90
3466;DHT22;1747;48.884;9.160;2022-11-20T03:04:14;7.20;99.90
3466;DHT22;1747;48.884;9.160;2022-11-20T03:06:41;7.20;99.90
3466;DHT22;1747;48.884;9.160;2022-11-20T03:09:08;7.30;99.90
3466;DHT22;1747;48.884;9.160;2022-11-20T03:11:34;7.30;99.90
3466;DHT22;1747;48.884;9.160;2022-11-20T03:14:02;7.40;99.90
3466;DHT22;1747;48.884;9.160;2022-11-20T03:16:31;7.40;99.90
3466;DHT22;1747;48.884;9.160;2022-11-20T03:18:58;7.40;99.90
3466;DHT22;1747;48.884;9.160;2022-11-20T03:21:25;7.40;99.90
3466;DHT22;1747;48.884;9.160;2022-11-20T03:23:53;7.40;99.90
3466;DHT22;1747;48.884;9.160;2022-11-20T03:26:21;7.40;99.90
3466;DHT22;1747;48.884;9.160;2022-11-20T03:28:50;7.40;99.90
3466;DHT22;1747;48.884;9.160;2022-11-20T03:31:19;7.30;99.90
3466;DHT22;1747;48.884;9.160;2022-11-20T03:33:47;7.10;99.90
3466;DHT22;1747;48.884;9.160;2022-11-20T03:36:16;7.10;99.90
3466;DHT22;1747;48.884;9.160;2022-11-20T03:38:43;7.10;99.90
3466;DHT22;1747;48.884;9.160;2022-11-20T03:41:12;7.10;99.90
3466;DHT22;1747;48.884;9.160;2022-11-20T03:43:39;7.00;99.90
3466;DHT22;1747;48.884;9.160;2022-11-20T03:46:06;7.10;99.90
3466;DHT22;1747;48.884;9.160;2022-11-20T03:48:34;7.00;99.90
3466;DHT22;1747;48.884;9.160;2022-11-20T03:51:13;6.90;99.90
3466;DHT22;1747;48.884;9.160;2022-11-20T03:53:41;6.80;99.90
3466;DHT22;1747;48.884;9.160;2022-11-20T03:56:08;6.80;99.90
3466;DHT22;1747;48.884;9.160;2022-11-20T03:58:37;6.80;99.90
3466;DHT22;1747;48.884;9.160;2022-11-20T04:01:06;6.80;99.90
3466;DHT22;1747;48.884;9.160;2022-11-20T04:03:33;6.80;99.90
3466;DHT22;1747;48.884;9.160;2022-11-20T04:06:05;6.90;99.90
3466;DHT22;1747;48.884;9.160;2022-11-20T04:08:33;6.80;99.90
3466;DHT22;1747;48.884;9.160;2022-11-20T04:11:11;6.90;99.90
3466;DHT22;1747;48.884;9.160;2022-11-20T04:13:38;7.10;99.90
3466;DHT22;1747;48.884;9.160;2022-11-20T04:16:05;7.10;99.90
3466;DHT22;1747;48.884;9.160;2022-11-20T04:18:33;7.20;99.90
3466;DHT22;1747;48.884;9.160;2022-11-20T04:21:00;7.30;99.90
3466;DHT22;1747;48.884;9.160;2022-11-20T04:23:27;7.30;99.90
3466;DHT22;1747;48.884;9.160;2022-11-20T04:26:00;7.30;99.90
3466;DHT22;1747;48.884;9.160;2022-11-20T04:28:27;7.30;99.90
3466;DHT22;1747;48.884;9.160;2022-11-20T04:30:54;7.30;99.90
3466;DHT22;1747;48.884;9.160;2022-11-20T04:33:27;7.30;99.90
3466;DHT22;1747;48.884;9.160;2022-11-20T04:35:54;7.30;99.90
3466;DHT22;1747;48.884;9.160;2022-11-20T04:38:21;7.30;99.90
3466;DHT22;1747;48.884;9.160;2022-11-20T04:40:58;7.30;99.90
3466;DHT22;1747;48.884;9.160;2022-11-20T04:43:25;7.30;99.90
3466;DHT22;1747;48.884;9.160;2022-11-20T04:46:06;7.20;99.90
3466;DHT22;1747;48.884;9.160;2022-11-20T04:48:37;7.30;99.90
3466;DHT22;1747;48.884;9.160;2022-11-20T04:51:06;7.20;99.90
3466;DHT22;1747;48.884;9.160;2022-11-20T04:53:41;7.20;99.90
3466;DHT22;1747;48.884;9.160;2022-11-20T04:56:10;7.20;99.90
3466;DHT22;1747;48.884;9.160;2022-11-20T04:58:38;7.10;99.90
3466;DHT22;1747;48.884;9.160;2022-11-20T05:01:09;7.00;99.90
3466;DHT22;1747;48.884;9.160;2022-11-20T05:03:39;7.10;99.90
3466;DHT22;1747;48.884;9.160;2022-11-20T05:06:08;7.10;99.90
3466;DHT22;1747;48.884;9.160;2022-11-20T05:08:35;7.10;99.90
3466;DHT22;1747;48.884;9.160;2022-11-20T05:11:02;7.20;99.90
3466;DHT22;1747;48.884;9.160;2022-11-20T05:13:31;7.20;99.90
3466;DHT22;1747;48.884;9.160;2022-11-20T05:16:01;7.10;99.90
3466;DHT22;1747;48.884;9.160;2022-11-20T05:18:28;7.10;99.90
3466;DHT22;1747;48.884;9.160;2022-11-20T05:20:55;7.10;99.90
3466;DHT22;1747;48.884;9.160;2022-11-20T05:23:22;7.10;99.90
3466;DHT22;1747;48.884;9.160;2022-11-20T05:25:52;7.10;99.90
3466;DHT22;1747;48.884;9.160;2022-11-20T05:28:19;7.10;99.90
3466;DHT22;1747;48.884;9.160;2022-11-20T05:30:48;7.00;99.90
3466;DHT22;1747;48.884;9.160;2022-11-20T05:33:14;7.00;99.90
3466;DHT22;1747;48.884;9.160;2022-11-20T05:35:41;7.00;99.90
3466;DHT22;1747;48.884;9.160;2022-11-20T05:38:08;7.00;99.90
3466;DHT22;1747;48.884;9.160;2022-11-20T05:40:36;7.10;99.90
3466;DHT22;1747;48.884;9.160;2022-11-20T05:43:02;7.00;99.90
3466;DHT22;1747;48.884;9.160;2022-11-20T05:45:29;7.00;99.90
3466;DHT22;1747;48.884;9.160;2022-11-20T05:47:59;7.10;99.90
3466;DHT22;1747;48.884;9.160;2022-11-20T05:50:26;7.10;99.90
3466;DHT22;1747;48.884;9.160;2022-11-20T05:52:53;7.10;99.90
3466;DHT22;1747;48.884;9.160;2022-11-20T05:55:20;7.10;99.90
3466;DHT22;1747;48.884;9.160;2022-11-20T05:57:47;7.20;99.90
3466;DHT22;1747;48.884;9.160;2022-11-20T06:00:14;7.20;99.90
3466;DHT22;1747;48.884;9.160;2022-11-20T06:02:41;7.30;99.90
3466;DHT22;1747;48.884;9.160;2022-11-20T06:05:10;7.40;99.90
3466;DHT22;1747;48.884;9.160;2022-11-20T06:07:36;7.40;99.90
3466;DHT22;1747;48.884;9.160;2022-11-20T06:10:04;7.50;99.90
3466;DHT22;1747;48.884;9.160;2022-11-20T06:12:31;7.50;99.90
3466;DHT22;1747;48.884;9.160;2022-11-20T06:14:59;7.50;99.90
3466;DHT22;1747;48.884;9.160;2022-11-20T06:17:26;7.50;99.90
3466;DHT22;1747;48.884;9.160;2022-11-20T06:19:53;7.50;99.90
3466;DHT22;1747;48.884;9.160;2022-11-20T06:22:21;7.50;99.90
3466;DHT22;1747;48.884;9.160;2022-11-20T06:24:48;7.50;99.90
3466;DHT22;1747;48.884;9.160;2022-11-20T06:27:15;7.50;99.90
3466;DHT22;1747;48.884;9.160;2022-11-20T06:29:43;7.50;99.90
3466;DHT22;1747;48.884;9.160;2022-11-20T06:32:10;7.50;99.90
3466;DHT22;1747;48.884;9.160;2022-11-20T06:34:37;7.50;99.90
3466;DHT22;1747;48.884;9.160;2022-11-20T06:37:03;7.50;99.90
3466;DHT22;1747;48.884;9.160;2022-11-20T06:39:31;7.60;99.90
3466;DHT22;1747;48.884;9.160;2022-11-20T06:41:58;7.50;99.90
3466;DHT22;1747;48.884;9.160;2022-11-20T06:44:25;7.50;99.90
3466;DHT22;1747;48.884;9.160;2022-11-20T06:46:52;7.50;99.90
3466;DHT22;1747;48.884;9.160;2022-11-20T06:49:19;7.50;99.90
3466;DHT22;1747;48.884;9.160;2022-11-20T06:51:45;7.60;99.90
3466;DHT22;1747;48.884;9.160;2022-11-20T06:54:12;7.60;99.90
3466;DHT22;1747;48.884;9.160;2022-11-20T06:56:40;7.50;99.90
3466;DHT22;1747;48.884;9.160;2022-11-20T06:59:07;7.50;99.90
3466;DHT22;1747;48.884;9.160;2022-11-20T07:01:34;7.50;99.90
3466;DHT22;1747;48.884;9.160;2022-11-20T07:04:01;7.50;99.90
3466;DHT22;1747;48.884;9.160;2022-11-20T07:06:28;7.50;99.90
3466;DHT22;1747;48.884;9.160;2022-11-20T07:08:55;7.60;99.90
3466;DHT22;1747;48.884;9.160;2022-11-20T07:11:22;7.60;99.90
3466;DHT22;1747;48.884;9.160;2022-11-20T07:13:51;7.60;99.90
3466;DHT22;1747;48.884;9.160;2022-11-20T07:16:18;7.60;99.90
3466;DHT22;1747;48.884;9.160;2022-11-20T07:18:45;7.60;99.90
3466;DHT22;1747;48.884;9.160;2022-11-20T07:21:11;7.70;99.90
3466;DHT22;1747;48.884;9.160;2022-11-20T07:23:38;7.60;99.90
3466;DHT22;1747;48.884;9.160;2022-11-20T07:26:06;7.50;99.90
3466;DHT22;1747;48.884;9.160;2022-11-20T07:28:33;7.50;99.90
3466;DHT22;1747;48.884;9.160;2022-11-20T07:31:02;7.60;99.90
3466;DHT22;1747;48.884;9.160;2022-11-20T07:33:30;7.50;99.90
3466;DHT22;1747;48.884;9.160;2022-11-20T07:35:59;7.60;99.90
3466;DHT22;1747;48.884;9.160;2022-11-20T07:38:25;7.80;99.90
3466;DHT22;1747;48.884;9.160;2022-11-20T07:40:54;7.90;99.90
3466;DHT22;1747;48.884;9.160;2022-11-20T07:43:23;7.90;99.90
3466;DHT22;1747;48.884;9.160;2022-11-20T07:45:50;7.90;99.90
3466;DHT22;1747;48.884;9.160;2022-11-20T07:48:19;7.90;99.90
3466;DHT22;1747;48.884;9.160;2022-11-20T07:50:46;8.00;99.90
3466;DHT22;1747;48.884;9.160;2022-11-20T07:53:16;8.00;99.90
3466;DHT22;1747;48.884;9.160;2022-11-20T07:55:46;8.10;99.90
3466;DHT22;1747;48.884;9.160;2022-11-20T07:58:14;8.10;99.90
3466;DHT22;1747;48.884;9.160;2022-11-20T08:00:41;8.00;99.90
3466;DHT22;1747;48.884;9.160;2022-11-20T08:03:08;8.00;99.90
3466;DHT22;1747;48.884;9.160;2022-11-20T08:05:36;8.00;99.90
3466;DHT22;1747;48.884;9.160;2022-11-20T08:08:03;8.00;99.90
3466;DHT22;1747;48.884;9.160;2022-11-20T08:10:30;8.10;99.90
3466;DHT22;1747;48.884;9.160;2022-11-20T08:12:57;8.20;99.90
3466;DHT22;1747;48.884;9.160;2022-11-20T08:15:41;8.30;99.90
3466;DHT22;1747;48.884;9.160;2022-11-20T08:18:09;8.30;99.90
3466;DHT22;1747;48.884;9.160;2022-11-20T08:20:38;8.40;99.90
3466;DHT22;1747;48.884;9.160;2022-11-20T08:23:06;8.40;99.90
3466;DHT22;1747;48.884;9.160;2022-11-20T08:25:34;8.50;99.90
3466;DHT22;1747;48.884;9.160;2022-11-20T08:28:03;8.60;99.90
3466;DHT22;1747;48.884;9.160;2022-11-20T08:30:30;8.60;99.90
3466;DHT22;1747;48.884;9.160;2022-11-20T08:33:01;8.60;99.90
3466;DHT22;1747;48.884;9.160;2022-11-20T08:35:28;8.60;99.90
3466;DHT22;1747;48.884;9.160;2022-11-20T08:37:56;8.70;99.90
3466;DHT22;1747;48.884;9.160;2022-11-20T08:40:23;8.70;99.90
3466;DHT22;1747;48.884;9.160;2022-11-20T08:42:51;8.70;99.90
3466;DHT22;1747;48.884;9.160;2022-11-20T08:45:18;8.80;99.90
3466;DHT22;1747;48.884;9.160;2022-11-20T08:47:45;8.80;99.90
3466;DHT22;1747;48.884;9.160;2022-11-20T08:50:14;8.80;99.90
3466;DHT22;1747;48.884;9.160;2022-11-20T08:52:42;8.80;99.90
3466;DHT22;1747;48.884;9.160;2022-11-20T08:55:10;8.80;99.90
3466;DHT22;1747;48.884;9.160;2022-11-20T08:57:37;8.80;99.90
3466;DHT22;1747;48.884;9.160;2022-11-20T09:00:05;8.70;99.90
3466;DHT22;1747;48.884;9.160;2022-11-20T09:02:33;8.80;99.90
3466;DHT22;1747;48.884;9.160;2022-11-20T09:04:59;8.80;99.90
3466;DHT22;1747;48.884;9.160;2022-11-20T09:07:28;8.80;99.90
3466;DHT22;1747;48.884;9.160;2022-11-20T09:09:55;8.80;99.90
3466;DHT22;1747;48.884;9.160;2022-11-20T09:12:23;8.90;99.90
3466;DHT22;1747;48.884;9.160;2022-11-20T09:14:50;8.90;99.90
3466;DHT22;1747;48.884;9.160;2022-11-20T09:17:16;8.90;99.90
3466;DHT22;1747;48.884;9.160;2022-11-20T09:19:43;8.90;99.90
3466;DHT22;1747;48.884;9.160;2022-11-20T09:22:10;8.90;99.90
3466;DHT22;1747;48.884;9.160;2022-11-20T09:24:37;8.90;99.90
3466;DHT22;1747;48.884;9.160;2022-11-20T09:27:04;8.90;99.90
3466;DHT22;1747;48.884;9.160;2022-11-20T09:29:32;8.90;99.90
3466;DHT22;1747;48.884;9.160;2022-11-20T09:31:59;9.00;99.90
3466;DHT22;1747;48.884;9.160;2022-11-20T09:34:26;8.90;99.90
3466;DHT22;1747;48.884;9.160;2022-11-20T09:36:52;8.90;99.90
3466;DHT22;1747;48.884;9.160;2022-11-20T09:39:19;9.00;99.90
3466;DHT22;1747;48.884;9.160;2022-11-20T09:42:05;9.00;99.90
3466;DHT22;1747;48.884;9.160;2022-11-20T09:47:39;9.00;99.90
3466;DHT22;1747;48.884;9.160;2022-11-20T09:50:21;9.00;99.90
3466;DHT22;1747;48.884;9.160;2022-11-20T09:53:04;9.00;99.90
3466;DHT22;1747;48.884;9.160;2022-11-20T09:55:36;8.90;99.90
3466;DHT22;1747;48.884;9.160;2022-11-20T09:58:06;8.90;99.90
3466;DHT22;1747;48.884;9.160;2022-11-20T10:00:35;8.90;99.90
3466;DHT22;1747;48.884;9.160;2022-11-20T10:03:13;8.80;99.90
3466;DHT22;1747;48.884;9.160;2022-11-20T10:05:45;8.80;99.90
3466;DHT22;1747;48.884;9.160;2022-11-20T10:08:17;8.80;99.90
3466;DHT22;1747;48.884;9.160;2022-11-20T10:10:47;8.90;99.90
3466;DHT22;1747;48.884;9.160;2022-11-20T10:13:24;8.90;99.90
3466;DHT22;1747;48.884;9.160;2022-11-20T10:16:12;9.00;99.90
3466;DHT22;1747;48.884;9.160;2022-11-20T10:18:53;9.00;99.90
3466;DHT22;1747;48.884;9.160;2022-11-20T10:21:28;8.90;99.90
3466;DHT22;1747;48.884;9.160;2022-11-20T10:24:20;8.90;99.90
3466;DHT22;1747;48.884;9.160;2022-11-20T10:26:57;8.90;99.90
3466;DHT22;1747;48.884;9.160;2022-11-20T10:29:32;8.90;99.90
3466;DHT22;1747;48.884;9.160;2022-11-20T10:32:02;8.90;99.90
3466;DHT22;1747;48.884;9.160;2022-11-20T10:34:35;8.80;99.90
3466;DHT22;1747;48.884;9.160;2022-11-20T10:37:09;8.80;99.90
3466;DHT22;1747;48.884;9.160;2022-11-20T10:39:40;8.70;99.90
3466;DHT22;1747;48.884;9.160;2022-11-20T10:42:11;8.70;99.90
3466;DHT22;1747;48.884;9.160;2022-11-20T10:44:47;8.70;99.90
3466;DHT22;1747;48.884;9.160;2022-11-20T10:47:30;8.70;99.90
3466;DHT22;1747;48.884;9.160;2022-11-20T10:50:02;8.50;99.90
3466;DHT22;1747;48.884;9.160;2022-11-20T10:52:35;8.40;99.90
3466;DHT22;1747;48.884;9.160;2022-11-20T10:55:11;8.30;99.90
3466;DHT22;1747;48.884;9.160;2022-11-20T10:57:51;8.20;99.90
3466;DHT22;1747;48.884;9.160;2022-11-20T11:00:19;8.20;99.90
3466;DHT22;1747;48.884;9.160;2022-11-20T11:02:49;8.20;99.90
3466;DHT22;1747;48.884;9.160;2022-11-20T11:05:35;8.20;99.90
3466;DHT22;1747;48.884;9.160;2022-11-20T11:08:03;8.20;99.90
3466;DHT22;1747;48.884;9.160;2022-11-20T11:10:39;8.10;99.90
3466;DHT22;1747;48.884;9.160;2022-11-20T11:13:19;8.20;99.90
3466;DHT22;1747;48.884;9.160;2022-11-20T11:15:46;8.20;99.90
3466;DHT22;1747;48.884;9.160;2022-11-20T11:18:23;8.30;99.90
3466;DHT22;1747;48.884;9.160;2022-11-20T11:20:51;8.40;99.90
3466;DHT22;1747;48.884;9.160;2022-11-20T11:23:29;8.40;99.90
3466;DHT22;1747;48.884;9.160;2022-11-20T11:25:58;8.70;99.90
3466;DHT22;1747;48.884;9.160;2022-11-20T11:28:25;8.90;99.90
3466;DHT22;1747;48.884;9.160;2022-11-20T11:30:54;9.10;99.90
3466;DHT22;1747;48.884;9.160;2022-11-20T11:33:24;9.20;99.90
3466;DHT22;1747;48.884;9.160;2022-11-20T11:35:53;9.40;99.90
3466;DHT22;1747;48.884;9.160;2022-11-20T11:38:28;9.60;99.90
3466;DHT22;1747;48.884;9.160;2022-11-20T11:40:56;9.80;99.90
3466;DHT22;1747;48.884;9.160;2022-11-20T11:43:25;9.90;99.90
3466;DHT22;1747;48.884;9.160;2022-11-20T11:46:26;9.90;99.90
3466;DHT22;1747;48.884;9.160;2022-11-20T11:48:57;9.80;99.90
3466;DHT22;1747;48.884;9.160;2022-11-20T11:51:26;9.60;99.90
3466;DHT22;1747;48.884;9.160;2022-11-20T11:53:56;9.60;99.90
3466;DHT22;1747;48.884;9.160;2022-11-20T11:56:33;9.70;99.90
3466;DHT22;1747;48.884;9.160;2022-11-20T11:59:05;10.00;99.90
3466;DHT22;1747;48.884;9.160;2022-11-20T12:01:41;10.20;99.90
3466;DHT22;1747;48.884;9.160;2022-11-20T12:04:17;10.30;99.90
3466;DHT22;1747;48.884;9.160;2022-11-20T12:06:48;10.40;99.90
3466;DHT22;1747;48.884;9.160;2022-11-20T12:09:18;10.30;99.90
3466;DHT22;1747;48.884;9.160;2022-11-20T12:11:51;10.20;99.90
3466;DHT22;1747;48.884;9.160;2022-11-20T12:14:24;10.40;99.90
3466;DHT22;1747;48.884;9.160;2022-11-20T12:16:54;10.90;99.90
3466;DHT22;1747;48.884;9.160;2022-11-20T12:19:24;11.50;99.90
3466;DHT22;1747;48.884;9.160;2022-11-20T12:21:58;12.00;99.90
3466;DHT22;1747;48.884;9.160;2022-11-20T12:24:38;12.40;99.90
3466;DHT22;1747;48.884;9.160;2022-11-20T12:27:23;12.80;99.90
3466;DHT22;1747;48.884;9.160;2022-11-20T12:29:56;13.20;99.90
3466;DHT22;1747;48.884;9.160;2022-11-20T12:32:47;13.40;99.90
3466;DHT22;1747;48.884;9.160;2022-11-20T12:39:05;13.70;99.90
3466;DHT22;1747;48.884;9.160;2022-11-20T12:41:49;13.80;99.90
3466;DHT22;1747;48.884;9.160;2022-11-20T12:44:48;13.90;99.90
3466;DHT22;1747;48.884;9.160;2022-11-20T12:47:49;14.10;99.90
3466;DHT22;1747;48.884;9.160;2022-11-20T12:52:56;14.60;99.90
3466;DHT22;1747;48.884;9.160;2022-11-20T12:55:31;14.70;99.90
3466;DHT22;1747;48.884;9.160;2022-11-20T12:58:05;14.70;99.90
3466;DHT22;1747;48.884;9.160;2022-11-20T13:00:43;14.70;99.90
3466;DHT22;1747;48.884;9.160;2022-11-20T13:03:21;14.60;99.90
3466;DHT22;1747;48.884;9.160;2022-11-20T13:05:58;14.40;99.90
3466;DHT22;1747;48.884;9.160;2022-11-20T13:08:31;14.40;99.90
3466;DHT22;1747;48.884;9.160;2022-11-20T13:11:05;14.20;99.90
3466;DHT22;1747;48.884;9.160;2022-11-20T13:13:40;13.80;99.90
3466;DHT22;1747;48.884;9.160;2022-11-20T13:16:12;13.30;99.90
3466;DHT22;1747;48.884;9.160;2022-11-20T13:18:41;12.90;99.90
3466;DHT22;1747;48.884;9.160;2022-11-20T13:21:14;12.70;99.90
3466;DHT22;1747;48.884;9.160;2022-11-20T13:23:43;12.70;99.90
3466;DHT22;1747;48.884;9.160;2022-11-20T13:26:17;12.80;99.90
3466;DHT22;1747;48.884;9.160;2022-11-20T13:28:46;12.70;99.90
3466;DHT22;1747;48.884;9.160;2022-11-20T13:31:30;12.80;99.90
3466;DHT22;1747;48.884;9.160;2022-11-20T13:33:58;12.70;99.90
3466;DHT22;1747;48.884;9.160;2022-11-20T13:36:27;12.60;99.90
3466;DHT22;1747;48.884;9.160;2022-11-20T13:38:57;12.60;99.90
3466;DHT22;1747;48.884;9.160;2022-11-20T13:41:26;12.70;99.90
3466;DHT22;1747;48.884;9.160;2022-11-20T13:44:05;13.00;99.90
3466;DHT22;1747;48.884;9.160;2022-11-20T13:46:37;13.40;99.90
3466;DHT22;1747;48.884;9.160;2022-11-20T13:49:09;13.50;99.90
3466;DHT22;1747;48.884;9.160;2022-11-20T13:51:41;13.50;99.90
3466;DHT22;1747;48.884;9.160;2022-11-20T13:54:43;13.10;99.90
3466;DHT22;1747;48.884;9.160;2022-11-20T14:00:15;12.20;99.90
3466;DHT22;1747;48.884;9.160;2022-11-20T14:02:44;11.80;99.90
3466;DHT22;1747;48.884;9.160;2022-11-20T14:05:19;11.50;99.90
3466;DHT22;1747;48.884;9.160;2022-11-20T14:07:47;11.30;99.90
3466;DHT22;1747;48.884;9.160;2022-11-20T14:10:22;11.20;99.90
3466;DHT22;1747;48.884;9.160;2022-11-20T14:12:49;11.10;99.90
3466;DHT22;1747;48.884;9.160;2022-11-20T14:15:26;11.10;99.90
3466;DHT22;1747;48.884;9.160;2022-11-20T14:17:53;10.80;99.90
3466;DHT22;1747;48.884;9.160;2022-11-20T14:20:24;10.80;99.90
3466;DHT22;1747;48.884;9.160;2022-11-20T14:22:54;10.80;99.90
3466;DHT22;1747;48.884;9.160;2022-11-20T14:25:24;10.80;99.90
3466;DHT22;1747;48.884;9.160;2022-11-20T14:27:54;10.80;99.90
3466;DHT22;1747;48.884;9.160;2022-11-20T14:30:22;10.80;99.90
3466;DHT22;1747;48.884;9.160;2022-11-20T14:32:51;10.80;99.90
3466;DHT22;1747;48.884;9.160;2022-11-20T14:35:23;10.80;99.90
3466;DHT22;1747;48.884;9.160;2022-11-20T14:37:50;10.80;99.90
3466;DHT22;1747;48.884;9.160;2022-11-20T14:40:27;10.80;99.90
3466;DHT22;1747;48.884;9.160;2022-11-20T14:42:55;10.70;99.90
3466;DHT22;1747;48.884;9.160;2022-11-20T14:45:23;10.60;99.90
3466;DHT22;1747;48.884;9.160;2022-11-20T14:47:52;10.50;99.90
3466;DHT22;1747;48.884;9.160;2022-11-20T14:50:22;10.50;99.90
3466;DHT22;1747;48.884;9.160;2022-11-20T14:52:53;10.50;99.90
3466;DHT22;1747;48.884;9.160;2022-11-20T14:55:31;10.40;99.90
3466;DHT22;1747;48.884;9.160;2022-11-20T14:57:59;10.30;99.90
3466;DHT22;1747;48.884;9.160;2022-11-20T15:00:27;10.30;99.90
3466;DHT22;1747;48.884;9.160;2022-11-20T15:02:54;10.20;99.90
3466;DHT22;1747;48.884;9.160;2022-11-20T15:05:23;10.10;99.90
3466;DHT22;1747;48.884;9.160;2022-11-20T15:07:52;10.10;99.90
3466;DHT22;1747;48.884;9.160;2022-11-20T15:10:31;10.10;99.90
3466;DHT22;1747;48.884;9.160;2022-11-20T15:13:01;9.90;99.90
3466;DHT22;1747;48.884;9.160;2022-11-20T15:15:32;9.90;99.90
3466;DHT22;1747;48.884;9.160;2022-11-20T15:18:00;9.80;99.90
3466;DHT22;1747;48.884;9.160;2022-11-20T15:20:31;9.80;99.90
3466;DHT22;1747;48.884;9.160;2022-11-20T15:22:58;9.60;99.90
3466;DHT22;1747;48.884;9.160;2022-11-20T15:25:28;9.40;99.90
3466;DHT22;1747;48.884;9.160;2022-11-20T15:27:56;9.40;99.90
3466;DHT22;1747;48.884;9.160;2022-11-20T15:30:23;9.40;99.90
3466;DHT22;1747;48.884;9.160;2022-11-20T15:32:50;9.30;99.90
3466;DHT22;1747;48.884;9.160;2022-11-20T15:35:17;9.10;99.90
3466;DHT22;1747;48.884;9.160;2022-11-20T15:37:44;9.00;99.90
3466;DHT22;1747;48.884;9.160;2022-11-20T15:40:12;8.80;99.90
3466;DHT22;1747;48.884;9.160;2022-11-20T15:42:39;8.70;99.90
3466;DHT22;1747;48.884;9.160;2022-11-20T15:45:28;8.60;99.90
3466;DHT22;1747;48.884;9.160;2022-11-20T15:47:56;8.50;99.90
3466;DHT22;1747;48.884;9.160;2022-11-20T15:50:25;8.40;99.90
3466;DHT22;1747;48.884;9.160;2022-11-20T15:52:54;8.30;99.90
3466;DHT22;1747;48.884;9.160;2022-11-20T15:55:20;8.40;99.90
3466;DHT22;1747;48.884;9.160;2022-11-20T15:57:47;8.40;99.90
3466;DHT22;1747;48.884;9.160;2022-11-20T16:00:15;8.40;99.90
3466;DHT22;1747;48.884;9.160;2022-11-20T16:02:44;8.50;99.90
3466;DHT22;1747;48.884;9.160;2022-11-20T16:05:11;8.60;99.90
3466;DHT22;1747;48.884;9.160;2022-11-20T16:07:38;8.60;99.90
3466;DHT22;1747;48.884;9.160;2022-11-20T16:10:06;8.60;99.90
3466;DHT22;1747;48.884;9.160;2022-11-20T16:12:32;8.60;99.90
3466;DHT22;1747;48.884;9.160;2022-11-20T16:15:17;8.60;99.90
3466;DHT22;1747;48.884;9.160;2022-11-20T16:18:03;8.70;99.90
3466;DHT22;1747;48.884;9.160;2022-11-20T16:20:30;8.70;99.90
3466;DHT22;1747;48.884;9.160;2022-11-20T16:22:56;8.70;99.90
3466;DHT22;1747;48.884;9.160;2022-11-20T16:25:23;8.70;99.90
3466;DHT22;1747;48.884;9.160;2022-11-20T16:27:50;8.60;99.90
3466;DHT22;1747;48.884;9.160;2022-11-20T16:30:17;8.60;99.90
3466;DHT22;1747;48.884;9.160;2022-11-20T16:32:44;8.40;99.90
3466;DHT22;1747;48.884;9.160;2022-11-20T16:35:12;8.30;99.90
3466;DHT22;1747;48.884;9.160;2022-11-20T16:37:39;8.20;99.90
3466;DHT22;1747;48.884;9.160;2022-11-20T16:40:08;8.20;99.90
3466;DHT22;1747;48.884;9.160;2022-11-20T16:42:36;8.20;99.90
3466;DHT22;1747;48.884;9.160;2022-11-20T16:45:04;8.40;99.90